sensor_id;sensor_type;location;lat;lon;timestamp;P1;durP1;ratioP1;P2;durP2;ratioP2
72676;SDS011;60755;51.374;10.662;2022-09-03T00:00:46;2.10;;;1.43;;
72676;SDS011;60755;51.374;10.662;2022-09-03T00:03:23;1.30;;;1.30;;
72676;SDS011;60755;51.374;10.662;2022-09-03T00:05:55;1.30;;;1.30;;
72676;SDS011;60755;51.374;10.662;2022-09-03T00:08:32;1.20;;;1.20;;
72676;SDS011;60755;51.374;10.662;2022-09-03T00:11:03;1.52;;;1.52;;
72676;SDS011;60755;51.374;10.662;2022-09-03T00:13:39;1.57;;;1.20;;
72676;SDS011;60755;51.374;10.662;2022-09-03T00:16:10;1.67;;;1.60;;
72676;SDS011;60755;51.374;10.662;2022-09-03T00:18:42;1.20;;;1.20;;
72676;SDS011;60755;51.374;10.662;2022-09-03T00:21:11;1.57;;;1.50;;
72676;SDS011;60755;51.374;10.662;2022-09-03T00:23:43;2.85;;;1.60;;
72676;SDS011;60755;51.374;10.662;2022-09-03T00:26:17;1.30;;;1.30;;
72676;SDS011;60755;51.374;10.662;2022-09-03T00:28:53;1.60;;;1.50;;
72676;SDS011;60755;51.374;10.662;2022-09-03T00:31:26;1.53;;;1.53;;
72676;SDS011;60755;51.374;10.662;2022-09-03T00:33:59;1.50;;;1.50;;
72676;SDS011;60755;51.374;10.662;2022-09-03T00:36:31;1.57;;;1.57;;
72676;SDS011;60755;51.374;10.662;2022-09-03T00:39:06;1.40;;;1.40;;
72676;SDS011;60755;51.374;10.662;2022-09-03T00:41:35;1.20;;;1.20;;
72676;SDS011;60755;51.374;10.662;2022-09-03T00:47:09;1.80;;;1.70;;
72676;SDS011;60755;51.374;10.662;2022-09-03T00:49:44;1.60;;;1.50;;
72676;SDS011;60755;51.374;10.662;2022-09-03T00:52:22;1.70;;;1.60;;
72676;SDS011;60755;51.374;10.662;2022-09-03T00:55:01;1.60;;;1.60;;
72676;SDS011;60755;51.374;10.662;2022-09-03T00:57:36;1.57;;;1.57;;
72676;SDS011;60755;51.374;10.662;2022-09-03T01:00:13;3.07;;;1.73;;
72676;SDS011;60755;51.374;10.662;2022-09-03T01:02:46;1.40;;;1.40;;
72676;SDS011;60755;51.374;10.662;2022-09-03T01:05:28;2.50;;;1.60;;
72676;SDS011;60755;51.374;10.662;2022-09-03T01:08:06;1.80;;;1.70;;
72676;SDS011;60755;51.374;10.662;2022-09-03T01:10:45;1.73;;;1.50;;
72676;SDS011;60755;51.374;10.662;2022-09-03T01:13:22;1.90;;;1.80;;
72676;SDS011;60755;51.374;10.662;2022-09-03T01:15:56;2.40;;;1.80;;
72676;SDS011;60755;51.374;10.662;2022-09-03T01:18:35;1.70;;;1.60;;
72676;SDS011;60755;51.374;10.662;2022-09-03T01:21:13;3.20;;;1.60;;
72676;SDS011;60755;51.374;10.662;2022-09-03T01:24:02;2.90;;;1.60;;
72676;SDS011;60755;51.374;10.662;2022-09-03T01:27:00;1.90;;;1.70;;
72676;SDS011;60755;51.374;10.662;2022-09-03T01:29:37;1.70;;;1.43;;
72676;SDS011;60755;51.374;10.662;2022-09-03T01:32:09;1.70;;;1.60;;
72676;SDS011;60755;51.374;10.662;2022-09-03T01:34:42;1.80;;;1.80;;
72676;SDS011;60755;51.374;10.662;2022-09-03T01:37:18;1.97;;;1.80;;
72676;SDS011;60755;51.374;10.662;2022-09-03T01:39:57;1.53;;;1.53;;
72676;SDS011;60755;51.374;10.662;2022-09-03T01:42:32;3.60;;;1.80;;
72676;SDS011;60755;51.374;10.662;2022-09-03T01:45:18;1.90;;;1.80;;
72676;SDS011;60755;51.374;10.662;2022-09-03T01:47:59;1.60;;;1.60;;
72676;SDS011;60755;51.374;10.662;2022-09-03T01:50:35;1.77;;;1.77;;
72676;SDS011;60755;51.374;10.662;2022-09-03T01:53:09;3.13;;;1.83;;
72676;SDS011;60755;51.374;10.662;2022-09-03T01:56:01;1.80;;;1.70;;
72676;SDS011;60755;51.374;10.662;2022-09-03T01:58:41;1.80;;;1.63;;
72676;SDS011;60755;51.374;10.662;2022-09-03T02:01:16;2.00;;;1.90;;
72676;SDS011;60755;51.374;10.662;2022-09-03T02:03:47;5.23;;;2.00;;
72676;SDS011;60755;51.374;10.662;2022-09-03T02:06:14;1.90;;;1.77;;
72676;SDS011;60755;51.374;10.662;2022-09-03T02:08:44;3.17;;;1.93;;
72676;SDS011;60755;51.374;10.662;2022-09-03T02:11:11;2.37;;;1.90;;
72676;SDS011;60755;51.374;10.662;2022-09-03T02:13:38;2.00;;;1.90;;
72676;SDS011;60755;51.374;10.662;2022-09-03T02:16:09;1.83;;;1.73;;
72676;SDS011;60755;51.374;10.662;2022-09-03T02:18:41;2.17;;;1.90;;
72676;SDS011;60755;51.374;10.662;2022-09-03T02:21:11;1.90;;;1.80;;
72676;SDS011;60755;51.374;10.662;2022-09-03T02:23:40;1.70;;;1.60;;
72676;SDS011;60755;51.374;10.662;2022-09-03T02:26:07;1.80;;;1.70;;
72676;SDS011;60755;51.374;10.662;2022-09-03T02:28:36;1.70;;;1.60;;
72676;SDS011;60755;51.374;10.662;2022-09-03T02:31:03;2.20;;;1.93;;
72676;SDS011;60755;51.374;10.662;2022-09-03T02:33:30;2.10;;;2.00;;
72676;SDS011;60755;51.374;10.662;2022-09-03T02:36:01;1.80;;;1.70;;
72676;SDS011;60755;51.374;10.662;2022-09-03T02:38:29;3.90;;;1.70;;
72676;SDS011;60755;51.374;10.662;2022-09-03T02:40:56;1.90;;;1.80;;
72676;SDS011;60755;51.374;10.662;2022-09-03T02:43:24;1.63;;;1.60;;
72676;SDS011;60755;51.374;10.662;2022-09-03T02:45:56;2.40;;;2.20;;
72676;SDS011;60755;51.374;10.662;2022-09-03T02:48:26;3.60;;;3.10;;
72676;SDS011;60755;51.374;10.662;2022-09-03T02:50:53;3.40;;;2.73;;
72676;SDS011;60755;51.374;10.662;2022-09-03T02:53:21;3.30;;;2.17;;
72676;SDS011;60755;51.374;10.662;2022-09-03T02:55:48;2.00;;;1.90;;
72676;SDS011;60755;51.374;10.662;2022-09-03T02:58:14;1.80;;;1.70;;
72676;SDS011;60755;51.374;10.662;2022-09-03T03:00:43;1.90;;;1.80;;
72676;SDS011;60755;51.374;10.662;2022-09-03T03:03:29;2.67;;;2.03;;
72676;SDS011;60755;51.374;10.662;2022-09-03T03:05:57;1.87;;;1.80;;
72676;SDS011;60755;51.374;10.662;2022-09-03T03:08:31;3.50;;;2.00;;
72676;SDS011;60755;51.374;10.662;2022-09-03T03:10:59;2.73;;;1.80;;
72676;SDS011;60755;51.374;10.662;2022-09-03T03:13:35;1.73;;;1.63;;
72676;SDS011;60755;51.374;10.662;2022-09-03T03:16:02;1.50;;;1.50;;
72676;SDS011;60755;51.374;10.662;2022-09-03T03:18:31;1.93;;;1.83;;
72676;SDS011;60755;51.374;10.662;2022-09-03T03:21:02;1.73;;;1.63;;
72676;SDS011;60755;51.374;10.662;2022-09-03T03:23:36;1.97;;;1.80;;
72676;SDS011;60755;51.374;10.662;2022-09-03T03:26:12;2.27;;;2.00;;
72676;SDS011;60755;51.374;10.662;2022-09-03T03:28:42;1.90;;;1.80;;
72676;SDS011;60755;51.374;10.662;2022-09-03T03:31:11;2.47;;;1.87;;
72676;SDS011;60755;51.374;10.662;2022-09-03T03:33:41;2.27;;;2.00;;
72676;SDS011;60755;51.374;10.662;2022-09-03T03:36:08;1.87;;;1.77;;
72676;SDS011;60755;51.374;10.662;2022-09-03T03:38:38;2.13;;;2.03;;
72676;SDS011;60755;51.374;10.662;2022-09-03T03:41:06;1.80;;;1.70;;
72676;SDS011;60755;51.374;10.662;2022-09-03T03:43:33;2.07;;;2.07;;
72676;SDS011;60755;51.374;10.662;2022-09-03T03:46:00;2.37;;;1.87;;
72676;SDS011;60755;51.374;10.662;2022-09-03T03:48:26;2.10;;;2.03;;
72676;SDS011;60755;51.374;10.662;2022-09-03T03:50:53;2.00;;;1.93;;
72676;SDS011;60755;51.374;10.662;2022-09-03T03:53:19;2.33;;;2.23;;
72676;SDS011;60755;51.374;10.662;2022-09-03T03:55:54;1.97;;;1.87;;
72676;SDS011;60755;51.374;10.662;2022-09-03T03:58:21;3.30;;;2.00;;
72676;SDS011;60755;51.374;10.662;2022-09-03T04:00:47;2.10;;;1.97;;
72676;SDS011;60755;51.374;10.662;2022-09-03T04:03:14;2.10;;;2.00;;
72676;SDS011;60755;51.374;10.662;2022-09-03T04:05:40;2.40;;;2.20;;
72676;SDS011;60755;51.374;10.662;2022-09-03T04:08:07;2.93;;;2.73;;
72676;SDS011;60755;51.374;10.662;2022-09-03T04:10:34;2.20;;;2.10;;
72676;SDS011;60755;51.374;10.662;2022-09-03T04:13:02;6.23;;;2.00;;
72676;SDS011;60755;51.374;10.662;2022-09-03T04:15:28;3.40;;;2.13;;
72676;SDS011;60755;51.374;10.662;2022-09-03T04:17:55;2.10;;;2.00;;
72676;SDS011;60755;51.374;10.662;2022-09-03T04:20:21;2.27;;;2.10;;
72676;SDS011;60755;51.374;10.662;2022-09-03T04:22:47;2.17;;;2.07;;
72676;SDS011;60755;51.374;10.662;2022-09-03T04:25:14;2.23;;;2.13;;
72676;SDS011;60755;51.374;10.662;2022-09-03T04:27:41;2.70;;;2.50;;
72676;SDS011;60755;51.374;10.662;2022-09-03T04:30:10;2.43;;;2.30;;
72676;SDS011;60755;51.374;10.662;2022-09-03T04:32:36;2.30;;;2.20;;
72676;SDS011;60755;51.374;10.662;2022-09-03T04:35:18;2.17;;;1.90;;
72676;SDS011;60755;51.374;10.662;2022-09-03T04:37:45;2.40;;;2.30;;
72676;SDS011;60755;51.374;10.662;2022-09-03T04:40:11;2.30;;;2.20;;
72676;SDS011;60755;51.374;10.662;2022-09-03T04:42:38;2.97;;;2.77;;
72676;SDS011;60755;51.374;10.662;2022-09-03T04:45:05;3.73;;;3.43;;
72676;SDS011;60755;51.374;10.662;2022-09-03T04:47:33;4.50;;;3.43;;
72676;SDS011;60755;51.374;10.662;2022-09-03T04:50:01;6.97;;;4.40;;
72676;SDS011;60755;51.374;10.662;2022-09-03T04:52:28;2.67;;;2.50;;
72676;SDS011;60755;51.374;10.662;2022-09-03T04:54:55;3.80;;;2.83;;
72676;SDS011;60755;51.374;10.662;2022-09-03T04:57:22;3.57;;;3.37;;
72676;SDS011;60755;51.374;10.662;2022-09-03T04:59:48;5.20;;;4.70;;
72676;SDS011;60755;51.374;10.662;2022-09-03T05:02:15;13.33;;;11.00;;
72676;SDS011;60755;51.374;10.662;2022-09-03T05:04:42;14.13;;;11.60;;
72676;SDS011;60755;51.374;10.662;2022-09-03T05:07:09;4.77;;;4.27;;
72676;SDS011;60755;51.374;10.662;2022-09-03T05:09:35;6.22;;;5.35;;
72676;SDS011;60755;51.374;10.662;2022-09-03T05:12:02;7.00;;;3.58;;
72676;SDS011;60755;51.374;10.662;2022-09-03T05:14:28;4.65;;;4.32;;
72676;SDS011;60755;51.374;10.662;2022-09-03T05:16:55;3.70;;;3.40;;
72676;SDS011;60755;51.374;10.662;2022-09-03T05:19:21;5.65;;;2.47;;
72676;SDS011;60755;51.374;10.662;2022-09-03T05:21:49;2.38;;;2.25;;
72676;SDS011;60755;51.374;10.662;2022-09-03T05:24:15;2.38;;;2.17;;
72676;SDS011;60755;51.374;10.662;2022-09-03T05:26:42;2.00;;;1.85;;
72676;SDS011;60755;51.374;10.662;2022-09-03T05:29:08;2.00;;;1.90;;
72676;SDS011;60755;51.374;10.662;2022-09-03T05:31:36;2.05;;;1.95;;
72676;SDS011;60755;51.374;10.662;2022-09-03T05:34:04;2.15;;;1.92;;
72676;SDS011;60755;51.374;10.662;2022-09-03T05:36:32;2.85;;;2.08;;
72676;SDS011;60755;51.374;10.662;2022-09-03T05:39:02;2.92;;;2.45;;
72676;SDS011;60755;51.374;10.662;2022-09-03T05:41:29;2.30;;;2.20;;
72676;SDS011;60755;51.374;10.662;2022-09-03T05:43:57;2.20;;;2.10;;
72676;SDS011;60755;51.374;10.662;2022-09-03T05:46:25;1.95;;;1.85;;
72676;SDS011;60755;51.374;10.662;2022-09-03T05:48:55;2.00;;;1.90;;
72676;SDS011;60755;51.374;10.662;2022-09-03T05:51:22;2.10;;;2.00;;
72676;SDS011;60755;51.374;10.662;2022-09-03T05:53:49;2.00;;;1.90;;
72676;SDS011;60755;51.374;10.662;2022-09-03T05:56:19;1.80;;;1.70;;
72676;SDS011;60755;51.374;10.662;2022-09-03T05:58:48;1.98;;;1.88;;
72676;SDS011;60755;51.374;10.662;2022-09-03T06:01:16;2.53;;;1.90;;
72676;SDS011;60755;51.374;10.662;2022-09-03T06:03:44;3.05;;;2.00;;
72676;SDS011;60755;51.374;10.662;2022-09-03T06:06:12;1.92;;;1.83;;
72676;SDS011;60755;51.374;10.662;2022-09-03T06:08:39;2.05;;;1.95;;
72676;SDS011;60755;51.374;10.662;2022-09-03T06:11:08;1.80;;;1.60;;
72676;SDS011;60755;51.374;10.662;2022-09-03T06:13:38;2.10;;;2.00;;
72676;SDS011;60755;51.374;10.662;2022-09-03T06:16:05;2.70;;;1.98;;
72676;SDS011;60755;51.374;10.662;2022-09-03T06:18:32;4.63;;;1.98;;
72676;SDS011;60755;51.374;10.662;2022-09-03T06:20:59;1.98;;;1.77;;
72676;SDS011;60755;51.374;10.662;2022-09-03T06:23:27;2.30;;;2.15;;
72676;SDS011;60755;51.374;10.662;2022-09-03T06:25:59;2.08;;;1.98;;
72676;SDS011;60755;51.374;10.662;2022-09-03T06:28:26;2.28;;;2.08;;
72676;SDS011;60755;51.374;10.662;2022-09-03T06:30:56;6.00;;;2.10;;
72676;SDS011;60755;51.374;10.662;2022-09-03T06:33:23;3.75;;;2.00;;
72676;SDS011;60755;51.374;10.662;2022-09-03T06:35:51;2.13;;;1.77;;
72676;SDS011;60755;51.374;10.662;2022-09-03T06:38:21;2.78;;;2.10;;
72676;SDS011;60755;51.374;10.662;2022-09-03T06:40:50;2.38;;;2.10;;
72676;SDS011;60755;51.374;10.662;2022-09-03T06:43:18;2.38;;;2.15;;
72676;SDS011;60755;51.374;10.662;2022-09-03T06:45:51;2.20;;;2.10;;
72676;SDS011;60755;51.374;10.662;2022-09-03T06:48:20;2.05;;;1.95;;
72676;SDS011;60755;51.374;10.662;2022-09-03T06:50:52;2.08;;;1.98;;
72676;SDS011;60755;51.374;10.662;2022-09-03T06:53:19;2.00;;;1.90;;
72676;SDS011;60755;51.374;10.662;2022-09-03T06:55:51;2.60;;;2.40;;
72676;SDS011;60755;51.374;10.662;2022-09-03T06:58:18;2.20;;;2.10;;
72676;SDS011;60755;51.374;10.662;2022-09-03T07:00:46;2.10;;;2.03;;
72676;SDS011;60755;51.374;10.662;2022-09-03T07:03:14;2.13;;;1.98;;
72676;SDS011;60755;51.374;10.662;2022-09-03T07:05:41;3.53;;;2.10;;
72676;SDS011;60755;51.374;10.662;2022-09-03T07:08:08;2.65;;;2.00;;
72676;SDS011;60755;51.374;10.662;2022-09-03T07:10:35;2.33;;;2.15;;
72676;SDS011;60755;51.374;10.662;2022-09-03T07:13:01;2.63;;;1.88;;
72676;SDS011;60755;51.374;10.662;2022-09-03T07:15:28;2.70;;;2.15;;
72676;SDS011;60755;51.374;10.662;2022-09-03T07:17:54;2.90;;;2.10;;
72676;SDS011;60755;51.374;10.662;2022-09-03T07:20:22;4.13;;;1.83;;
72676;SDS011;60755;51.374;10.662;2022-09-03T07:22:48;1.67;;;1.60;;
72676;SDS011;60755;51.374;10.662;2022-09-03T07:25:14;1.80;;;1.70;;
72676;SDS011;60755;51.374;10.662;2022-09-03T07:27:41;2.65;;;2.10;;
72676;SDS011;60755;51.374;10.662;2022-09-03T07:30:08;2.10;;;1.90;;
72676;SDS011;60755;51.374;10.662;2022-09-03T07:32:36;1.90;;;1.88;;
72676;SDS011;60755;51.374;10.662;2022-09-03T07:35:05;1.95;;;1.90;;
72676;SDS011;60755;51.374;10.662;2022-09-03T07:37:33;1.80;;;1.73;;
72676;SDS011;60755;51.374;10.662;2022-09-03T07:40:00;1.80;;;1.70;;
72676;SDS011;60755;51.374;10.662;2022-09-03T07:42:27;1.85;;;1.70;;
72676;SDS011;60755;51.374;10.662;2022-09-03T07:44:55;1.73;;;1.63;;
72676;SDS011;60755;51.374;10.662;2022-09-03T07:47:22;2.08;;;1.88;;
72676;SDS011;60755;51.374;10.662;2022-09-03T07:49:50;5.28;;;2.00;;
72676;SDS011;60755;51.374;10.662;2022-09-03T07:52:16;3.92;;;1.80;;
72676;SDS011;60755;51.374;10.662;2022-09-03T07:54:44;2.15;;;1.80;;
72676;SDS011;60755;51.374;10.662;2022-09-03T07:57:10;2.17;;;2.00;;
72676;SDS011;60755;51.374;10.662;2022-09-03T07:59:37;2.45;;;1.85;;
72676;SDS011;60755;51.374;10.662;2022-09-03T08:02:05;2.03;;;1.92;;
72676;SDS011;60755;51.374;10.662;2022-09-03T08:04:31;2.28;;;2.17;;
72676;SDS011;60755;51.374;10.662;2022-09-03T08:07:00;4.13;;;1.65;;
72676;SDS011;60755;51.374;10.662;2022-09-03T08:09:28;2.45;;;1.92;;
72676;SDS011;60755;51.374;10.662;2022-09-03T08:11:58;3.65;;;3.15;;
72676;SDS011;60755;51.374;10.662;2022-09-03T08:14:24;2.17;;;2.00;;
72676;SDS011;60755;51.374;10.662;2022-09-03T08:16:51;3.15;;;2.70;;
72676;SDS011;60755;51.374;10.662;2022-09-03T08:19:17;4.13;;;2.50;;
72676;SDS011;60755;51.374;10.662;2022-09-03T08:21:44;2.17;;;1.98;;
72676;SDS011;60755;51.374;10.662;2022-09-03T08:24:13;2.13;;;2.03;;
72676;SDS011;60755;51.374;10.662;2022-09-03T08:26:40;3.42;;;2.08;;
72676;SDS011;60755;51.374;10.662;2022-09-03T08:29:09;2.50;;;2.40;;
72676;SDS011;60755;51.374;10.662;2022-09-03T08:31:35;2.60;;;2.28;;
72676;SDS011;60755;51.374;10.662;2022-09-03T08:34:02;1.80;;;1.70;;
72676;SDS011;60755;51.374;10.662;2022-09-03T08:36:31;5.97;;;2.33;;
72676;SDS011;60755;51.374;10.662;2022-09-03T08:39:01;2.97;;;1.88;;
72676;SDS011;60755;51.374;10.662;2022-09-03T08:41:35;2.10;;;2.00;;
72676;SDS011;60755;51.374;10.662;2022-09-03T08:44:21;2.22;;;2.10;;
72676;SDS011;60755;51.374;10.662;2022-09-03T08:46:52;2.15;;;2.05;;
72676;SDS011;60755;51.374;10.662;2022-09-03T08:49:23;3.25;;;2.08;;
72676;SDS011;60755;51.374;10.662;2022-09-03T08:51:54;2.50;;;2.03;;
72676;SDS011;60755;51.374;10.662;2022-09-03T08:54:25;4.35;;;2.42;;
72676;SDS011;60755;51.374;10.662;2022-09-03T08:56:54;2.05;;;1.95;;
72676;SDS011;60755;51.374;10.662;2022-09-03T08:59:28;4.15;;;2.00;;
72676;SDS011;60755;51.374;10.662;2022-09-03T09:01:56;4.00;;;3.03;;
72676;SDS011;60755;51.374;10.662;2022-09-03T09:04:32;2.10;;;2.00;;
72676;SDS011;60755;51.374;10.662;2022-09-03T09:07:13;5.85;;;2.10;;
72676;SDS011;60755;51.374;10.662;2022-09-03T09:09:45;1.85;;;1.75;;
72676;SDS011;60755;51.374;10.662;2022-09-03T09:12:24;2.50;;;2.10;;
72676;SDS011;60755;51.374;10.662;2022-09-03T09:15:04;3.53;;;1.67;;
72676;SDS011;60755;51.374;10.662;2022-09-03T09:17:44;1.70;;;1.70;;
72676;SDS011;60755;51.374;10.662;2022-09-03T09:20:20;3.80;;;1.67;;
72676;SDS011;60755;51.374;10.662;2022-09-03T09:22:53;5.43;;;1.67;;
72676;SDS011;60755;51.374;10.662;2022-09-03T09:25:23;1.60;;;1.60;;
72676;SDS011;60755;51.374;10.662;2022-09-03T09:27:51;2.25;;;1.90;;
72676;SDS011;60755;51.374;10.662;2022-09-03T09:30:23;3.03;;;1.60;;
72676;SDS011;60755;51.374;10.662;2022-09-03T09:32:49;2.35;;;2.25;;
72676;SDS011;60755;51.374;10.662;2022-09-03T09:35:16;2.20;;;1.60;;
72676;SDS011;60755;51.374;10.662;2022-09-03T09:37:47;2.15;;;1.67;;
72676;SDS011;60755;51.374;10.662;2022-09-03T09:40:28;4.15;;;1.55;;
72676;SDS011;60755;51.374;10.662;2022-09-03T09:43:08;1.80;;;1.70;;
72676;SDS011;60755;51.374;10.662;2022-09-03T09:45:41;1.67;;;1.67;;
72676;SDS011;60755;51.374;10.662;2022-09-03T09:48:12;1.98;;;1.42;;
72676;SDS011;60755;51.374;10.662;2022-09-03T09:50:43;5.20;;;1.73;;
72676;SDS011;60755;51.374;10.662;2022-09-03T09:53:10;3.45;;;1.67;;
72676;SDS011;60755;51.374;10.662;2022-09-03T09:55:50;2.33;;;1.60;;
72676;SDS011;60755;51.374;10.662;2022-09-03T09:58:19;1.45;;;1.40;;
72676;SDS011;60755;51.374;10.662;2022-09-03T10:00:55;3.80;;;1.52;;
72676;SDS011;60755;51.374;10.662;2022-09-03T10:03:27;3.08;;;1.80;;
72676;SDS011;60755;51.374;10.662;2022-09-03T10:06:02;1.90;;;1.70;;
72676;SDS011;60755;51.374;10.662;2022-09-03T10:08:46;3.72;;;1.55;;
72676;SDS011;60755;51.374;10.662;2022-09-03T10:11:13;2.35;;;1.50;;
72676;SDS011;60755;51.374;10.662;2022-09-03T10:13:41;4.05;;;1.73;;
72676;SDS011;60755;51.374;10.662;2022-09-03T10:16:14;2.33;;;1.52;;
72676;SDS011;60755;51.374;10.662;2022-09-03T10:18:48;1.75;;;1.75;;
72676;SDS011;60755;51.374;10.662;2022-09-03T10:21:38;1.60;;;1.50;;
72676;SDS011;60755;51.374;10.662;2022-09-03T10:24:18;1.63;;;1.60;;
72676;SDS011;60755;51.374;10.662;2022-09-03T10:26:55;2.13;;;1.40;;
72676;SDS011;60755;51.374;10.662;2022-09-03T10:29:24;1.40;;;1.40;;
72676;SDS011;60755;51.374;10.662;2022-09-03T10:31:55;1.73;;;1.50;;
72676;SDS011;60755;51.374;10.662;2022-09-03T10:34:28;1.70;;;1.55;;
72676;SDS011;60755;51.374;10.662;2022-09-03T10:37:09;2.05;;;1.92;;
72676;SDS011;60755;51.374;10.662;2022-09-03T10:39:51;1.88;;;1.77;;
72676;SDS011;60755;51.374;10.662;2022-09-03T10:42:36;1.60;;;1.52;;
72676;SDS011;60755;51.374;10.662;2022-09-03T10:45:16;2.42;;;2.22;;
72676;SDS011;60755;51.374;10.662;2022-09-03T10:47:58;1.85;;;1.30;;
72676;SDS011;60755;51.374;10.662;2022-09-03T10:50:33;1.85;;;1.50;;
72676;SDS011;60755;51.374;10.662;2022-09-03T10:53:13;3.58;;;1.73;;
72676;SDS011;60755;51.374;10.662;2022-09-03T10:55:54;1.40;;;1.40;;
72676;SDS011;60755;51.374;10.662;2022-09-03T10:58:36;1.50;;;1.40;;
72676;SDS011;60755;51.374;10.662;2022-09-03T11:01:15;4.00;;;1.42;;
72676;SDS011;60755;51.374;10.662;2022-09-03T11:03:51;3.85;;;1.30;;
72676;SDS011;60755;51.374;10.662;2022-09-03T11:06:33;1.40;;;1.35;;
72676;SDS011;60755;51.374;10.662;2022-09-03T11:09:12;1.85;;;1.40;;
72676;SDS011;60755;51.374;10.662;2022-09-03T11:11:43;1.88;;;1.40;;
72676;SDS011;60755;51.374;10.662;2022-09-03T11:14:15;1.90;;;1.30;;
72676;SDS011;60755;51.374;10.662;2022-09-03T11:16:51;1.67;;;1.58;;
72676;SDS011;60755;51.374;10.662;2022-09-03T11:19:23;2.58;;;1.42;;
72676;SDS011;60755;51.374;10.662;2022-09-03T11:21:57;1.50;;;1.40;;
72676;SDS011;60755;51.374;10.662;2022-09-03T11:24:26;3.40;;;1.30;;
72676;SDS011;60755;51.374;10.662;2022-09-03T11:27:00;1.50;;;1.40;;
72676;SDS011;60755;51.374;10.662;2022-09-03T11:29:31;2.72;;;1.50;;
72676;SDS011;60755;51.374;10.662;2022-09-03T11:32:03;2.97;;;1.38;;
72676;SDS011;60755;51.374;10.662;2022-09-03T11:34:44;3.03;;;1.50;;
72676;SDS011;60755;51.374;10.662;2022-09-03T11:37:16;1.42;;;1.42;;
72676;SDS011;60755;51.374;10.662;2022-09-03T11:39:51;1.10;;;1.10;;
72676;SDS011;60755;51.374;10.662;2022-09-03T11:42:23;1.30;;;1.20;;
72676;SDS011;60755;51.374;10.662;2022-09-03T11:45:11;1.38;;;1.27;;
72676;SDS011;60755;51.374;10.662;2022-09-03T11:47:49;6.80;;;1.65;;
72676;SDS011;60755;51.374;10.662;2022-09-03T11:50:18;1.45;;;1.45;;
72676;SDS011;60755;51.374;10.662;2022-09-03T11:52:47;1.42;;;1.33;;
72676;SDS011;60755;51.374;10.662;2022-09-03T11:55:28;2.67;;;1.42;;
72676;SDS011;60755;51.374;10.662;2022-09-03T11:57:58;1.17;;;1.17;;
72676;SDS011;60755;51.374;10.662;2022-09-03T12:00:37;1.17;;;1.13;;
72676;SDS011;60755;51.374;10.662;2022-09-03T12:03:11;1.30;;;1.30;;
72676;SDS011;60755;51.374;10.662;2022-09-03T12:05:44;1.48;;;1.30;;
72676;SDS011;60755;51.374;10.662;2022-09-03T12:08:21;1.60;;;1.38;;
72676;SDS011;60755;51.374;10.662;2022-09-03T12:11:18;1.35;;;1.35;;
72676;SDS011;60755;51.374;10.662;2022-09-03T12:13:56;1.23;;;1.23;;
72676;SDS011;60755;51.374;10.662;2022-09-03T12:16:44;1.50;;;1.40;;
72676;SDS011;60755;51.374;10.662;2022-09-03T12:19:24;1.58;;;1.23;;
72676;SDS011;60755;51.374;10.662;2022-09-03T12:21:57;1.20;;;1.20;;
72676;SDS011;60755;51.374;10.662;2022-09-03T12:24:25;2.10;;;1.35;;
72676;SDS011;60755;51.374;10.662;2022-09-03T12:26:57;1.20;;;1.20;;
72676;SDS011;60755;51.374;10.662;2022-09-03T12:29:25;1.60;;;1.50;;
72676;SDS011;60755;51.374;10.662;2022-09-03T12:31:54;1.40;;;1.30;;
72676;SDS011;60755;51.374;10.662;2022-09-03T12:34:21;1.77;;;1.40;;
72676;SDS011;60755;51.374;10.662;2022-09-03T12:36:50;1.23;;;1.20;;
72676;SDS011;60755;51.374;10.662;2022-09-03T12:39:18;1.40;;;1.30;;
72676;SDS011;60755;51.374;10.662;2022-09-03T12:41:54;1.50;;;1.40;;
72676;SDS011;60755;51.374;10.662;2022-09-03T12:44:28;1.40;;;1.40;;
72676;SDS011;60755;51.374;10.662;2022-09-03T12:47:00;1.42;;;1.25;;
72676;SDS011;60755;51.374;10.662;2022-09-03T12:49:33;1.45;;;1.38;;
72676;SDS011;60755;51.374;10.662;2022-09-03T12:52:02;1.50;;;1.40;;
72676;SDS011;60755;51.374;10.662;2022-09-03T12:54:35;1.60;;;1.50;;
72676;SDS011;60755;51.374;10.662;2022-09-03T12:57:11;1.75;;;1.70;;
72676;SDS011;60755;51.374;10.662;2022-09-03T12:59:44;1.77;;;1.70;;
72676;SDS011;60755;51.374;10.662;2022-09-03T13:02:13;3.85;;;1.63;;
72676;SDS011;60755;51.374;10.662;2022-09-03T13:04:45;1.45;;;1.45;;
72676;SDS011;60755;51.374;10.662;2022-09-03T13:07:13;3.00;;;1.50;;
72676;SDS011;60755;51.374;10.662;2022-09-03T13:09:46;2.05;;;1.38;;
72676;SDS011;60755;51.374;10.662;2022-09-03T13:12:21;1.63;;;1.27;;
72676;SDS011;60755;51.374;10.662;2022-09-03T13:14:53;5.25;;;1.30;;
72676;SDS011;60755;51.374;10.662;2022-09-03T13:17:23;1.38;;;1.38;;
72676;SDS011;60755;51.374;10.662;2022-09-03T13:20:00;1.25;;;1.25;;
72676;SDS011;60755;51.374;10.662;2022-09-03T13:22:55;1.85;;;1.30;;
72676;SDS011;60755;51.374;10.662;2022-09-03T13:25:33;1.35;;;1.30;;
72676;SDS011;60755;51.374;10.662;2022-09-03T13:28:13;2.05;;;1.50;;
72676;SDS011;60755;51.374;10.662;2022-09-03T13:30:52;1.30;;;1.30;;
72676;SDS011;60755;51.374;10.662;2022-09-03T13:33:22;3.25;;;1.40;;
72676;SDS011;60755;51.374;10.662;2022-09-03T13:35:58;1.50;;;1.40;;
72676;SDS011;60755;51.374;10.662;2022-09-03T13:38:28;1.50;;;1.40;;
72676;SDS011;60755;51.374;10.662;2022-09-03T13:41:01;1.30;;;1.30;;
72676;SDS011;60755;51.374;10.662;2022-09-03T13:43:46;1.40;;;1.40;;
72676;SDS011;60755;51.374;10.662;2022-09-03T13:46:19;1.60;;;1.38;;
72676;SDS011;60755;51.374;10.662;2022-09-03T13:48:50;1.30;;;1.30;;
72676;SDS011;60755;51.374;10.662;2022-09-03T13:51:55;2.80;;;1.38;;
72676;SDS011;60755;51.374;10.662;2022-09-03T13:54:26;1.95;;;1.40;;
72676;SDS011;60755;51.374;10.662;2022-09-03T13:56:56;1.40;;;1.30;;
72676;SDS011;60755;51.374;10.662;2022-09-03T13:59:30;1.38;;;1.38;;
72676;SDS011;60755;51.374;10.662;2022-09-03T14:02:14;1.60;;;1.60;;
72676;SDS011;60755;51.374;10.662;2022-09-03T14:04:54;3.90;;;1.60;;
72676;SDS011;60755;51.374;10.662;2022-09-03T14:07:33;1.85;;;1.20;;
72676;SDS011;60755;51.374;10.662;2022-09-03T14:10:15;1.70;;;1.58;;
72676;SDS011;60755;51.374;10.662;2022-09-03T14:12:48;5.10;;;1.52;;
72676;SDS011;60755;51.374;10.662;2022-09-03T14:15:29;4.45;;;1.60;;
72676;SDS011;60755;51.374;10.662;2022-09-03T14:18:01;2.75;;;1.52;;
72676;SDS011;60755;51.374;10.662;2022-09-03T14:20:37;1.67;;;1.55;;
72676;SDS011;60755;51.374;10.662;2022-09-03T14:23:09;3.03;;;1.45;;
72676;SDS011;60755;51.374;10.662;2022-09-03T14:25:51;1.65;;;1.40;;
72676;SDS011;60755;51.374;10.662;2022-09-03T14:28:24;2.47;;;1.63;;
72676;SDS011;60755;51.374;10.662;2022-09-03T14:30:58;4.30;;;1.40;;
72676;SDS011;60755;51.374;10.662;2022-09-03T14:33:38;1.58;;;1.42;;
72676;SDS011;60755;51.374;10.662;2022-09-03T14:36:12;3.90;;;1.50;;
72676;SDS011;60755;51.374;10.662;2022-09-03T14:38:56;1.30;;;1.30;;
72676;SDS011;60755;51.374;10.662;2022-09-03T14:41:43;1.65;;;1.58;;
72676;SDS011;60755;51.374;10.662;2022-09-03T14:44:37;3.70;;;1.50;;
72676;SDS011;60755;51.374;10.662;2022-09-03T14:47:22;2.80;;;1.60;;
72676;SDS011;60755;51.374;10.662;2022-09-03T14:50:02;1.55;;;1.45;;
72676;SDS011;60755;51.374;10.662;2022-09-03T14:52:41;1.65;;;1.50;;
72676;SDS011;60755;51.374;10.662;2022-09-03T14:55:28;1.45;;;1.45;;
72676;SDS011;60755;51.374;10.662;2022-09-03T14:58:15;3.65;;;1.50;;
72676;SDS011;60755;51.374;10.662;2022-09-03T15:00:51;1.50;;;1.50;;
72676;SDS011;60755;51.374;10.662;2022-09-03T15:03:41;1.75;;;1.60;;
72676;SDS011;60755;51.374;10.662;2022-09-03T15:06:22;3.08;;;1.50;;